To NAV CANADA Home Page Login to a new session Search on AWWS site Feedback and Comments Disclaimer Vers la page française équivalente Tips FAQ What's new on the site To the Forecasts and Observations / NOTAM section To "File a Flight Plan" website Publications and other links Update of the User's profile FIC Telephone Numbers My Weather Data Folder Route Weather Data Regional Weather Data Local Weather Data To the Forecasts and Observations / NOTAM section
Request Generated 03/30/2015 at 12:52:39 UTC . Weather information available at that time is displayed.

METAR/TAF

BRANDON/BRANDON MUNICIPALITY/MB    

SPECI CYBR 301230Z 05006KT 15SM BKN055 OVC085 02/00 A2983 RMK SC5AC3
SLP117=
METAR CYBR 301200Z 07004KT 15SM -RA OVC052 01/M00 A2984 RMK SC8
SLP121=
SPECI CYBR 301139Z 07008KT 15SM -RA OVC058 02/M00 A2984 RMK SC8
SLP120=
METAR CYBR 301100Z 00000KT 15SM OVC062 02/M01 A2984 RMK SC8 SLP120=
METAR CYBR 301000Z 04003KT 300V050 15SM OVC061 01/M01 A2984 RMK SC8
SLP119=

TAF CYBR 301139Z 3012/3024 VRB03KT P6SM VCSH OVC060 TEMPO 3012/3014
P6SM -SHRA
FM301400 06007KT P6SM SCT050
BECMG 3016/3018 27012KT
BECMG 3018/3020 30018G28KT
RMK NXT FCST BY 301800Z=
Your time UTC time
Weather data provided by Environment Canada and NAV CANADA